Time;durP1;ratioP1;P1;durP2;ratioP2;P2;SDS_P1;SDS_P2;PMS_P1;PMS_P2;Temp;Humidity;BMP_temperature;BMP_pressure;BME280_temperature;BME280_humidity;BME280_pressure;Samples;Min_cycle;Max_cycle;Signal;HPM_P1;HPM_P2
2022/10/02 00:03:38;;;;;;;13.95;11.40;;;;;;;10.74;85.60;99684.20;3417282;83;21012;-75
2022/10/02 00:08:37;;;;;;;12.20;10.03;;;;;;;10.73;85.67;99679.85;3357488;82;20999;-74
2022/10/02 00:13:42;;;;;;;12.80;10.63;;;;;;;10.72;85.65;99684.64;3405590;83;20994;-74
2022/10/02 00:18:36;;;;;;;11.18;9.88;;;;;;;10.72;85.63;99685.50;3464171;82;21433;-74
2022/10/02 00:23:35;;;;;;;9.35;8.43;;;;;;;10.70;85.50;99683.78;3420379;80;20979;-75
2022/10/02 00:28:31;;;;;;;10.13;7.92;;;;;;;10.70;85.59;99685.08;3456868;82;20967;-74
2022/10/02 00:34:06;;;;;;;9.23;7.85;;;;;;;10.64;85.51;99689.41;3455955;82;21011;-75
2022/10/02 00:39:14;;;;;;;9.55;7.40;;;;;;;10.64;85.75;99688.52;3476225;81;20982;-75
2022/10/02 00:44:57;;;;;;;8.98;7.90;;;;;;;10.65;85.75;99689.82;3506591;81;21500;-75
2022/10/02 00:55:47;;;;;;;7.35;6.08;;;;;;;10.65;85.92;99700.22;3492156;80;20963;-74
2022/10/02 01:00:41;;;;;;;7.80;7.00;;;;;;;10.58;86.01;99704.98;3559841;80;21018;-74
2022/10/02 01:05:34;;;;;;;9.15;7.15;;;;;;;10.55;86.17;99708.90;3491986;78;21673;-75
2022/10/02 01:10:26;;;;;;;8.75;7.62;;;;;;;10.55;86.28;99716.70;3501610;80;21518;-75
2022/10/02 01:15:22;;;;;;;8.53;6.70;;;;;;;10.56;86.38;99706.72;3577991;77;20943;-74
2022/10/02 01:20:28;;;;;;;;;;;;;;;;;;;;;
2022/10/02 01:25:33;;;;;;;9.03;7.55;;;;;;;10.58;86.43;99715.82;3554808;79;20943;-74
2022/10/02 01:30:34;;;;;;;8.88;7.90;;;;;;;10.57;86.33;99717.56;3522931;80;20944;-75
2022/10/02 01:35:55;;;;;;;9.33;7.30;;;;;;;10.56;86.49;99715.81;3549238;78;21761;-75
2022/10/02 01:40:48;;;;;;;8.60;7.72;;;;;;;10.59;86.65;99726.66;3547336;80;21022;-75
2022/10/02 01:46:36;;;;;;;10.55;9.33;;;;;;;10.60;86.68;99717.54;3522749;80;21524;-74
2022/10/02 01:52:04;;;;;;;9.75;8.78;;;;;;;10.60;86.76;99720.14;3524642;80;21035;-75
2022/10/02 02:02:49;;;;;;;;;;;;;;;10.60;86.71;99733.58;3463361;81;20912;-74
2022/10/02 02:07:55;;;;;;;9.70;8.68;;;;;;;10.59;86.80;99739.66;3531212;80;20134;-75
2022/10/02 02:12:50;;;;;;;10.08;9.10;;;;;;;10.60;86.97;99740.08;3589109;78;20939;-75
2022/10/02 02:17:49;;;;;;;11.20;9.90;;;;;;;10.60;86.92;99755.23;3575751;78;20939;-75
2022/10/02 02:22:50;;;;;;;11.63;9.35;;;;;;;10.59;87.00;99748.76;3628135;78;20962;-74
2022/10/02 02:27:53;;;;;;;11.40;9.40;;;;;;;10.57;87.05;99752.66;3615265;78;21228;-75
2022/10/02 02:33:13;;;;;;;11.08;9.60;;;;;;;10.54;86.96;99751.34;3583448;78;20908;-75
2022/10/02 02:38:16;;;;;;;10.20;9.15;;;;;;;10.51;86.92;99753.92;3617470;77;20919;-75
2022/10/02 02:49:26;;;;;;;9.48;8.68;;;;;;;10.52;87.12;99764.77;3460259;81;21425;-75
2022/10/02 02:54:34;;;;;;;;;;;;;;;;;;;;;
2022/10/02 02:59:34;;;;;;;10.20;9.10;;;;;;;10.53;87.18;99769.08;3431058;82;21050;-75
2022/10/02 03:04:58;;;;;;;;;;;;;;;;;;;;;
2022/10/02 03:10:07;;;;;;;11.35;10.10;;;;;;;10.56;87.28;99770.39;3394522;81;22797;-74
2022/10/02 03:21:33;;;;;;;10.55;9.58;;;;;;;10.56;87.27;99773.00;3162202;88;21100;-74
2022/10/02 03:31:50;;;;;;;;;;;;;;;;;;;;;
2022/10/02 03:36:53;;;;;;;11.68;10.58;;;;;;;10.33;87.17;99762.98;3104811;89;21037;-75
2022/10/02 03:42:16;;;;;;;12.58;11.38;;;;;;;10.24;87.13;99776.34;3115327;89;21027;-75
2022/10/02 03:47:32;;;;;;;12.30;11.20;;;;;;;10.23;87.44;99782.41;3094991;90;21089;-75
2022/10/02 03:52:59;;;;;;;12.13;11.03;;;;;;;10.28;87.81;99783.30;3212015;87;21097;-75
2022/10/02 03:57:54;;;;;;;14.78;13.30;;;;;;;10.33;87.76;99781.17;3269751;85;21033;-74
2022/10/02 04:14:06;;;;;;;14.33;12.82;;;;;;;10.42;87.86;99783.35;3356080;84;21711;-74
2022/10/02 04:19:30;;;;;;;15.48;13.85;;;;;;;10.46;88.00;99785.52;3375107;84;21088;-75
2022/10/02 04:24:37;;;;;;;14.35;12.98;;;;;;;10.50;87.93;99785.99;3373651;83;21016;-75
2022/10/02 04:29:53;;;;;;;15.85;12.78;;;;;;;10.54;88.04;99789.47;3385689;83;22082;-75
2022/10/02 04:34:53;;;;;;;13.18;11.90;;;;;;;10.52;88.21;99786.00;3378229;83;21046;-74
2022/10/02 04:40:26;;;;;;;15.43;13.93;;;;;;;10.58;88.14;99797.25;3381450;83;21531;-75
2022/10/02 04:46:00;;;;;;;14.40;13.10;;;;;;;10.61;88.12;99797.71;3319563;83;21055;-74
2022/10/02 04:51:36;;;;;;;13.70;12.50;;;;;;;10.64;88.20;99799.88;3442366;82;20994;-75
2022/10/02 04:57:28;;;;;;;11.88;10.78;;;;;;;10.64;88.26;99802.48;3381933;83;21014;-75
2022/10/02 05:08:31;;;;;;;14.87;12.95;;;;;;;10.66;88.33;99801.19;3376083;83;21303;-75
2022/10/02 05:14:11;;;;;;;;;;;;;;;;;;;;;
2022/10/02 05:19:40;;;;;;;16.15;14.63;;;;;;;10.76;88.40;99818.96;3421149;82;20994;-75
2022/10/02 05:25:11;;;;;;;;;;;;;;;;;;;;;
2022/10/02 05:30:29;;;;;;;15.88;14.40;;;;;;;10.80;88.64;99824.59;3365081;84;20970;-74
2022/10/02 05:36:05;;;;;;;16.00;14.03;;;;;;;10.80;88.52;99825.89;3365389;80;20983;-74
2022/10/02 05:41:42;;;;;;;15.43;14.05;;;;;;;10.84;88.52;99838.05;3170192;90;21032;-74
2022/10/02 05:47:00;;;;;;;14.80;13.30;;;;;;;10.85;88.62;99835.88;3230098;86;21093;-74
2022/10/02 05:52:29;;;;;;;12.88;11.68;;;;;;;10.87;88.63;99835.03;3123584;90;21041;-74
2022/10/02 05:58:08;;;;;;;;;;;;;;;;;;;;;
2022/10/02 06:03:49;;;;;;;11.40;10.50;;;;;;;10.94;88.65;99844.12;3052306;91;21564;-74
2022/10/02 06:09:36;;;;;;;;;;;;;;;;;;;;;
2022/10/02 06:14:39;;;;;;;9.90;9.08;;;;;;;11.00;88.68;99852.81;3198592;84;21072;-75
2022/10/02 06:20:42;;;;;;;;;;;;;;;;;;;;;
2022/10/02 06:26:03;;;;;;;11.25;10.25;;;;;;;11.06;88.62;99858.02;3374621;81;21083;-74
2022/10/02 06:31:47;;;;;;;11.30;10.32;;;;;;;11.09;88.71;99859.77;3563340;77;21018;-75
2022/10/02 06:37:13;;;;;;;10.38;9.58;;;;;;;11.12;88.71;99859.75;3490389;80;20972;-74
2022/10/02 06:42:16;;;;;;;9.90;9.00;;;;;;;11.18;88.87;99866.72;3459667;81;20964;-75
2022/10/02 06:47:56;;;;;;;9.73;8.90;;;;;;;11.26;88.65;99867.57;3411866;82;20980;-74
2022/10/02 06:53:39;;;;;;;13.10;11.05;;;;;;;11.32;88.71;99875.40;3401710;82;21019;-74
2022/10/02 06:59:20;;;;;;;12.03;10.82;;;;;;;11.30;88.74;99890.12;3363316;83;21522;-75
2022/10/02 07:05:00;;;;;;;11.45;10.45;;;;;;;11.35;88.75;99888.39;3347577;84;20995;-75
2022/10/02 07:10:20;;;;;;;11.75;10.65;;;;;;;11.52;88.72;99886.22;3365601;83;20944;-74
2022/10/02 07:21:50;;;;;;;8.20;7.47;;;;;;;11.93;88.14;99894.46;3244375;86;21297;-75
2022/10/02 07:26:49;;;;;;;8.15;7.45;;;;;;;11.88;88.02;99902.72;3262498;86;22345;-74
2022/10/02 07:32:21;;;;;;;8.05;7.40;;;;;;;11.85;87.99;99907.47;3243520;86;21092;-75
2022/10/02 07:37:51;;;;;;;7.70;6.55;;;;;;;11.90;88.11;99915.30;3240242;87;21006;-75
2022/10/02 07:43:17;;;;;;;8.35;7.45;;;;;;;11.81;87.97;99915.72;3310339;85;20987;-74
2022/10/02 07:48:28;;;;;;;8.28;7.45;;;;;;;11.76;88.22;99925.27;3257016;86;21042;-75
2022/10/02 07:53:43;;;;;;;8.60;7.80;;;;;;;11.75;88.14;99924.86;3362589;83;21196;-75
2022/10/02 07:58:39;;;;;;;8.73;7.40;;;;;;;11.89;88.05;99927.42;3332367;85;21246;-75
2022/10/02 08:03:47;;;;;;;10.53;7.90;;;;;;;12.24;87.75;99920.03;3316404;85;21049;-75
2022/10/02 08:09:05;;;;;;;7.67;6.83;;;;;;;12.50;86.88;99917.77;3334889;85;21898;-75
2022/10/02 08:14:36;;;;;;;7.83;6.58;;;;;;;12.64;86.40;99920.33;3298188;85;21038;-75
2022/10/02 08:19:42;;;;;;;8.18;5.40;;;;;;;12.77;85.85;99927.25;3491693;79;21064;-75
2022/10/02 08:24:44;;;;;;;8.15;4.65;;;;;;;12.71;85.60;99930.72;3497026;81;21011;-75
2022/10/02 08:30:02;;;;;;;7.17;4.95;;;;;;;12.59;85.12;99935.57;3499967;80;21537;-75
2022/10/02 08:35:28;;;;;;;5.40;3.70;;;;;;;12.53;85.31;99939.93;3500579;80;20972;-75
2022/10/02 08:40:59;;;;;;;7.05;4.05;;;;;;;12.46;85.30;99937.77;3462630;80;20955;-75
2022/10/02 08:46:28;;;;;;;7.05;3.95;;;;;;;12.37;85.02;99944.32;3471283;80;20975;-75
2022/10/02 08:52:08;;;;;;;;;;;;;;;;;;;;;
2022/10/02 09:03:01;;;;;;;;;;;;;;;;;;;;;
2022/10/02 09:14:08;;;;;;;6.78;2.35;;;;;;;12.72;83.80;99944.66;3293829;85;21042;-74
2022/10/02 09:19:14;;;;;;;7.47;2.80;;;;;;;12.94;83.19;99943.66;3310568;86;21587;-74
2022/10/02 09:24:34;;;;;;;8.55;2.72;;;;;;;13.30;82.69;99944.32;3267927;84;20998;-75
2022/10/02 09:30:26;;;;;;;6.62;3.10;;;;;;;13.58;80.90;99950.70;3282287;85;20999;-75
2022/10/02 09:35:57;;;;;;;6.40;2.80;;;;;;;13.83;80.50;99947.90;3302194;85;21589;-75
2022/10/02 09:41:50;;;;;;;5.90;3.27;;;;;;;14.29;79.17;99948.77;3344337;83;21114;-75
2022/10/02 09:52:25;;;;;;;4.25;2.35;;;;;;;14.59;77.26;99938.86;3315097;83;21023;-75
2022/10/02 09:57:59;;;;;;;6.03;2.10;;;;;;;14.56;77.49;99936.23;3383370;82;21069;-74
2022/10/02 10:03:35;;;;;;;8.20;3.22;;;;;;;14.61;76.08;99926.63;3438163;82;21030;-75
2022/10/02 10:09:39;;;;;;;;;;;;;;;;;;;;;
2022/10/02 10:14:56;;;;;;;5.75;2.00;;;;;;;13.94;77.39;99943.88;3438678;81;21010;-75
2022/10/02 10:21:04;;;;;;;5.10;1.82;;;;;;;14.64;76.29;99917.44;3410925;82;21109;-75
2022/10/02 10:26:40;;;;;;;4.22;1.77;;;;;;;14.97;75.16;99906.09;3431631;82;21089;-74
2022/10/02 10:32:16;;;;;;;3.83;2.20;;;;;;;16.06;73.67;99898.25;3477251;79;20964;-75
2022/10/02 10:43:46;;;;;;;2.72;1.70;;;;;;;16.71;72.31;99893.45;3503531;80;21014;-75
2022/10/02 10:49:23;;;;;;;3.80;1.42;;;;;;;16.97;71.39;99897.30;3324601;83;21036;-75
2022/10/02 10:55:03;;;;;;;3.33;1.62;;;;;;;20.12;63.97;99871.61;3331260;84;21044;-75
2022/10/02 11:00:51;;;;;;;4.53;1.75;;;;;;;20.31;63.46;99874.42;3318264;84;21009;-75
2022/10/02 11:06:51;;;;;;;;;;;;;;;;;;;;;
2022/10/02 11:17:37;;;;;;;4.47;2.15;;;;;;;18.53;64.86;99877.57;3380560;80;21035;-75
2022/10/02 11:23:08;;;;;;;3.50;1.72;;;;;;;17.52;65.68;99890.73;3506091;80;20999;-75
2022/10/02 11:28:31;;;;;;;7.42;2.30;;;;;;;16.36;66.13;99902.94;3349343;81;21042;-76
2022/10/02 11:34:06;;;;;;;5.72;2.20;;;;;;;15.27;68.26;99917.87;3490158;79;20987;-76
2022/10/02 11:39:32;;;;;;;4.67;2.10;;;;;;;14.68;70.72;99920.43;3499860;79;20991;-75
2022/10/02 11:44:54;;;;;;;5.50;2.30;;;;;;;14.60;72.29;99909.22;3465623;80;21326;-75
2022/10/02 11:50:28;;;;;;;4.92;2.72;;;;;;;15.92;72.28;99903.77;3475689;80;21678;-75
2022/10/02 11:55:45;;;;;;;5.62;2.40;;;;;;;15.25;72.55;99907.45;3510515;80;20987;-76
2022/10/02 12:01:08;;;;;;;3.72;2.20;;;;;;;15.19;73.36;99902.29;3461047;81;21111;-75
2022/10/02 12:07:05;;;;;;;3.58;2.27;;;;;;;15.15;72.92;99898.00;3491392;80;21014;-75
2022/10/02 12:12:15;;;;;;;6.72;3.00;;;;;;;15.04;73.65;99894.65;3506719;80;20932;-75
2022/10/02 12:17:35;;;;;;;5.30;2.47;;;;;;;15.09;73.57;99891.52;3460082;79;21153;-75
2022/10/02 12:28:31;;;;;;;2.80;1.62;;;;;;;14.98;73.81;99888.20;3213988;87;21326;-74
2022/10/02 12:34:02;;;;;;;3.15;1.80;;;;;;;15.05;72.52;99889.84;3209099;87;21046;-74
2022/10/02 12:39:33;;;;;;;3.92;1.37;;;;;;;15.02;72.40;99902.55;3247548;86;21078;-74
2022/10/02 12:45:03;;;;;;;5.53;1.77;;;;;;;14.62;71.11;99910.05;3245366;86;21164;-75
2022/10/02 12:50:38;;;;;;;;;;;;;;;;;;;;;
2022/10/02 12:56:07;;;;;;;;;;;;;;;;;;;;;
2022/10/02 13:01:37;;;;;;;4.83;2.65;;;;;;;14.13;74.11;99893.58;3486759;80;21105;-75
2022/10/02 13:07:30;;;;;;;6.30;2.40;;;;;;;14.49;74.49;99881.85;3522424;80;20995;-74
2022/10/02 13:12:37;;;;;;;5.70;2.80;;;;;;;14.57;74.40;99880.44;3431100;81;21014;-74
2022/10/02 13:18:01;;;;;;;3.12;1.85;;;;;;;14.31;74.20;99875.09;3409651;81;21501;-75
2022/10/02 13:23:26;;;;;;;6.42;3.37;;;;;;;14.21;73.92;99880.00;3478262;79;20983;-74
2022/10/02 13:34:20;;;;;;;;;;;;;;;;;;;;;
2022/10/02 13:40:01;;;;;;;5.93;2.40;;;;;;;14.36;74.08;99870.68;3478649;81;21051;-75
2022/10/02 13:45:23;;;;;;;4.00;2.08;;;;;;;14.42;73.85;99871.05;3494147;81;21190;-74
2022/10/02 13:51:12;;;;;;;3.40;2.00;;;;;;;14.40;74.02;99873.67;3462288;81;22141;-74
2022/10/02 13:56:46;;;;;;;5.60;2.50;;;;;;;14.45;74.28;99873.59;3318472;85;21022;-75
2022/10/02 14:02:26;;;;;;;4.85;2.15;;;;;;;14.34;73.82;99864.58;3314350;84;21685;-75
2022/10/02 14:08:10;;;;;;;;;;;;;;;;;;;;;
2022/10/02 14:13:29;;;;;;;6.15;3.05;;;;;;;13.99;74.25;99872.39;3192239;87;21830;-75
2022/10/02 14:19:27;;;;;;;;;;;;;;;;;;;;;
2022/10/02 14:25:14;;;;;;;;;;;;;;;;;;;;;
2022/10/02 14:30:25;;;;;;;4.33;2.10;;;;;;;14.82;73.24;99853.08;3378508;82;21041;-74
2022/10/02 14:36:07;;;;;;;5.40;2.83;;;;;;;14.67;72.76;99853.31;3243018;83;21076;-74
2022/10/02 14:41:44;;;;;;;3.92;2.55;;;;;;;14.73;72.70;99854.97;3386091;82;21520;-74
2022/10/02 14:47:04;;;;;;;4.53;2.15;;;;;;;14.55;71.96;99850.83;3361310;82;22193;-75
2022/10/02 14:52:53;;;;;;;4.05;2.08;;;;;;;14.56;71.49;99851.23;3419969;82;21556;-75
2022/10/02 14:58:25;;;;;;;;;;;;;;;;;;;;;
2022/10/02 15:03:47;;;;;;;6.53;2.20;;;;;;;14.75;71.42;99851.44;3399241;82;20983;-74
2022/10/02 15:09:32;;;;;;;;;;;;;;;;;;;;;
2022/10/02 15:14:35;;;;;;;3.92;2.72;;;;;;;14.81;71.45;99843.52;3521179;80;21632;-75
2022/10/02 15:20:01;;;;;;;6.67;2.95;;;;;;;14.59;71.54;99842.93;3549048;80;21018;-74
2022/10/02 15:25:45;;;;;;;6.72;3.10;;;;;;;14.39;71.89;99844.92;3595723;79;20971;-74
2022/10/02 15:31:00;;;;;;;4.50;2.95;;;;;;;14.12;71.96;99841.75;3585135;78;21003;-74
2022/10/02 15:36:20;;;;;;;4.08;2.80;;;;;;;13.85;72.58;99843.78;3439403;81;21923;-74
2022/10/02 15:41:34;;;;;;;6.78;3.02;;;;;;;13.64;73.08;99857.91;3397744;81;21002;-74
2022/10/02 15:46:48;;;;;;;4.28;2.83;;;;;;;13.43;73.38;99853.77;3320566;83;21069;-74
2022/10/02 15:52:35;;;;;;;4.87;2.85;;;;;;;13.19;73.66;99857.84;3344301;83;21023;-74
2022/10/02 16:03:52;;;;;;;10.80;3.27;;;;;;;12.76;74.42;99858.98;3287737;85;20984;-74
2022/10/02 16:09:34;;;;;;;8.43;3.62;;;;;;;12.52;74.95;99859.55;3305593;84;21440;-74
2022/10/02 16:15:07;;;;;;;7.70;3.47;;;;;;;12.36;75.16;99856.14;3373975;83;21556;-74
2022/10/02 16:21:03;;;;;;;;;;;;;;;;;;;;;
2022/10/02 16:26:47;;;;;;;9.18;4.58;;;;;;;12.12;75.43;99869.25;3242246;86;21047;-74
2022/10/02 16:32:19;;;;;;;6.80;3.45;;;;;;;12.00;75.83;99867.53;3256679;86;21377;-74
2022/10/02 16:37:28;;;;;;;4.17;3.25;;;;;;;11.88;75.79;99874.06;3241826;87;21058;-74
2022/10/02 16:48:17;;;;;;;8.13;4.55;;;;;;;11.68;75.92;99871.05;3177923;88;21090;-74
2022/10/02 16:53:58;;;;;;;7.42;4.30;;;;;;;11.62;76.12;99872.34;3117874;90;20982;-74
2022/10/02 17:04:50;;;;;;;;;;;;;;;;;;;;;
2022/10/02 17:10:23;;;;;;;;;;;;;;;;;;;;;
2022/10/02 17:16:13;;;;;;;7.33;4.28;;;;;;;10.98;76.90;99862.36;3075372;86;37102;-74
2022/10/02 17:21:37;;;;;;;5.72;4.40;;;;;;;10.79;77.12;99863.18;3237819;86;21094;-74
2022/10/02 17:27:13;;;;;;;10.10;5.65;;;;;;;10.67;77.64;99864.86;3235121;86;21077;-74
2022/10/02 17:32:47;;;;;;;;;;;;;;;;;;;;;
2022/10/02 17:38:32;;;;;;;6.37;5.75;;;;;;;10.37;77.60;99863.45;3426893;83;21544;-74
2022/10/02 17:44:20;;;;;;;13.93;7.40;;;;;;;10.19;77.48;99862.47;3515278;80;21023;-74
2022/10/02 17:50:00;;;;;;;;;;;;;;;;;;;;;
2022/10/02 18:01:00;;;;;;;;;;;;;;;;;;;;;
2022/10/02 18:06:31;;;;;;;14.85;10.85;;;;;;;9.73;78.12;99850.55;3120119;90;21618;-74
2022/10/02 18:12:10;;;;;;;15.38;10.75;;;;;;;9.64;78.13;99859.55;3117404;90;20993;-74
2022/10/02 18:17:37;;;;;;;;;;;;;;;;;;;;;
2022/10/02 18:23:06;;;;;;;21.20;12.90;;;;;;;9.43;78.45;99862.44;3140852;88;21000;-73
2022/10/02 18:28:57;;;;;;;14.15;11.03;;;;;;;9.39;78.53;99858.50;3137128;88;21123;-73
2022/10/02 18:34:13;;;;;;;19.62;11.57;;;;;;;9.28;78.41;99851.92;3203487;79;21041;-73
2022/10/02 18:39:45;;;;;;;18.52;11.40;;;;;;;9.17;78.61;99850.53;3348787;83;20993;-73
2022/10/02 18:45:28;;;;;;;17.10;12.35;;;;;;;9.11;78.77;99853.95;3184918;87;20972;-74
2022/10/02 20:05:46;;;;;;;12.82;8.28;;;;;;;9.57;82.67;99826.22;3098425;91;21723;-74
2022/10/02 20:17:49;;;;;;;;;;;;;;;;;;;;;
2022/10/02 20:23:00;;;;;;;7.15;4.37;;;;;;;9.93;82.73;99819.07;3031943;93;21010;-74
2022/10/02 20:28:50;;;;;;;6.92;4.72;;;;;;;9.97;82.83;99828.19;3001264;93;21061;-75
2022/10/02 20:45:35;;;;;;;6.35;4.58;;;;;;;10.00;83.25;99833.41;2927963;95;21109;-74
2022/10/02 20:51:27;;;;;;;6.37;3.77;;;;;;;10.00;83.28;99833.41;2807584;98;22139;-74
2022/10/02 20:56:55;;;;;;;;;;;;;;;;;;;;;
2022/10/02 21:08:51;;;;;;;;;;;;;;;;;;;;;
2022/10/02 21:15:21;;;;;;;;;;;;;;;;;;;;;
2022/10/02 21:20:37;;;;;;;3.65;3.25;;;;;;;9.88;83.65;99827.26;2809075;99;21110;-74
2022/10/02 21:26:26;;;;;;;6.87;4.25;;;;;;;9.88;83.65;99827.26;2804530;100;22617;-74
2022/10/02 21:32:21;;;;;;;4.40;3.90;;;;;;;9.90;83.87;99835.92;2846127;97;21662;-74
2022/10/02 21:37:24;;;;;;;5.50;4.67;;;;;;;9.93;83.86;99828.16;3041401;87;21720;-74
2022/10/02 21:43:22;;;;;;;4.65;4.15;;;;;;;9.93;83.86;99828.16;3225362;87;21525;-74
2022/10/02 21:48:52;;;;;;;;;;;;;;;9.95;84.20;99823.42;3244932;87;21059;-74
2022/10/02 21:54:53;;;;;;;5.75;5.08;;;;;;;9.98;84.39;99829.90;3259596;80;20714;-74
2022/10/02 22:00:38;;;;;;;6.67;4.80;;;;;;;9.97;84.46;99825.59;3516201;80;20944;-74
2022/10/02 22:06:19;;;;;;;4.72;3.80;;;;;;;9.98;84.53;99828.60;3537099;80;20967;-74
2022/10/02 22:11:48;;;;;;;8.98;4.28;;;;;;;9.93;84.41;99817.77;3357981;83;21048;-74
2022/10/02 22:16:58;;;;;;;5.80;4.25;;;;;;;9.85;84.33;99823.34;3263820;85;21134;-74
2022/10/02 22:27:52;;;;;;;;;;;;;;;;;;;;;
2022/10/02 22:34:12;;;;;;;;;;;;;;;;;;;;;
2022/10/02 22:38:43;;;;;;;5.65;4.00;;;;;;;9.59;84.67;99819.31;3124717;88;21043;-74
2022/10/02 22:44:10;;;;;;;5.62;3.30;;;;;;;9.58;85.42;99809.77;3223454;85;21127;-74
2022/10/02 22:49:35;;;;;;;4.25;3.55;;;;;;;9.58;85.42;99809.77;3252469;85;21070;-74
2022/10/02 22:54:58;;;;;;;4.97;3.47;;;;;;;9.60;85.14;99814.98;3274455;83;20969;-74
2022/10/02 23:00:27;;;;;;;6.17;4.10;;;;;;;9.67;85.31;99820.20;3300866;85;21087;-74
2022/10/02 23:05:49;;;;;;;7.10;3.80;;;;;;;9.70;85.29;99824.13;3460836;81;20971;-74
2022/10/02 23:11:03;;;;;;;6.62;4.53;;;;;;;9.73;85.44;99831.09;3456760;81;21124;-74
2022/10/02 23:16:41;;;;;;;;;;;;;;;;;;;;;
2022/10/02 23:22:06;;;;;;;4.92;4.42;;;;;;;9.79;85.38;99824.62;3464294;81;20881;-73
2022/10/02 23:27:19;;;;;;;9.03;6.60;;;;;;;9.78;85.39;99828.50;3357083;82;21067;-74
2022/10/02 23:32:20;;;;;;;;;;;;;;;9.78;85.41;99818.11;3356860;82;21070;-74
2022/10/02 23:37:41;;;;;;;8.50;5.60;;;;;;;9.77;85.44;99827.64;3406391;82;21195;-73
2022/10/02 23:42:43;;;;;;;9.75;6.17;;;;;;;9.77;85.42;99833.27;3279617;84;21034;-74
2022/10/02 23:47:58;;;;;;;7.08;4.97;;;;;;;9.77;85.99;99818.99;3310517;85;21025;-74
2022/10/02 23:53:10;;;;;;;7.87;5.60;;;;;;;9.77;85.99;99818.99;3323112;85;21261;-73
2022/10/02 23:58:28;;;;;;;8.25;5.70;;;;;;;9.78;85.60;99815.08;3302208;85;21046;-73
